Time;durP1;ratioP1;P1;durP2;ratioP2;P2;SDS_P1;SDS_P2;PMS_P1;PMS_P2;Temp;Humidity;BMP_temperature;BMP_pressure;BME280_temperature;BME280_humidity;BME280_pressure;Samples;Min_cycle;Max_cycle;Signal;HPM_P1;HPM_P2
2021/08/14 00:01:17;;;;;;;;;6.00;6.00;;;;;25.09;43.91;101724.31;5069425;27;45601;-61
2021/08/14 00:03:42;;;;;;;;;3.33;3.33;;;;;25.08;44.29;101726.16;5071946;28;45852;-61
2021/08/14 00:06:08;;;;;;;;;3.67;3.67;;;;;25.08;44.15;101723.44;5066565;28;46000;-61
2021/08/14 00:08:33;;;;;;;;;2.67;2.67;;;;;25.08;43.85;101725.28;5070444;28;45329;-62
2021/08/14 00:10:59;;;;;;;;;7.33;5.00;;;;;25.07;43.76;101726.25;5086168;27;45396;-60
2021/08/14 00:13:24;;;;;;;;;4.67;4.67;;;;;25.06;43.73;101727.25;5069451;28;45378;-62
2021/08/14 00:15:50;;;;;;;;;4.00;4.00;;;;;25.03;43.92;101720.19;5068980;28;47616;-61
2021/08/14 00:18:15;;;;;;;;;6.25;5.00;;;;;25.00;43.66;101716.72;5063747;28;45604;-61
2021/08/14 00:20:41;;;;;;;;;5.00;5.00;;;;;25.00;43.79;101720.31;5065979;27;45458;-61
2021/08/14 00:23:06;;;;;;;;;5.33;5.33;;;;;24.98;44.25;101708.69;5067885;28;45638;-61
2021/08/14 00:25:32;;;;;;;;;4.33;4.33;;;;;24.98;43.79;101705.97;5075038;27;46260;-61
2021/08/14 00:27:57;;;;;;;;;5.00;5.00;;;;;24.94;44.14;101704.44;5077780;27;45787;-62
2021/08/14 00:30:23;;;;;;;;;5.67;5.67;;;;;24.91;43.79;101705.53;5078227;27;45469;-62
2021/08/14 00:32:48;;;;;;;;;7.33;7.00;;;;;24.89;44.16;101696.59;5067569;27;45321;-61
2021/08/14 00:35:14;;;;;;;;;4.00;4.00;;;;;24.88;44.20;101700.28;5066696;28;45624;-61
2021/08/14 00:37:39;;;;;;;;;8.33;5.00;;;;;24.88;44.43;101697.56;5065158;27;45386;-61
2021/08/14 00:40:06;;;;;;;;;3.00;2.33;;;;;24.86;44.00;101695.94;5065490;28;45545;-62
2021/08/14 00:42:32;;;;;;;;;4.00;4.00;;;;;24.84;43.93;101696.03;5070762;27;45562;-61
2021/08/14 00:44:58;;;;;;;;;4.33;4.33;;;;;24.84;44.09;101700.59;5064931;28;48293;-62
2021/08/14 00:47:27;;;;;;;;;6.33;6.00;;;;;24.84;44.14;101706.03;5061487;28;46406;-61
2021/08/14 00:49:55;;;;;;;;;5.00;5.00;;;;;24.82;44.24;101710.69;5067094;28;45602;-61
2021/08/14 00:52:21;;;;;;;;;5.00;3.67;;;;;24.81;44.11;101700.81;5050232;27;45362;-61
2021/08/14 00:54:47;;;;;;;;;6.00;4.00;;;;;24.79;44.03;101709.06;5050068;28;47361;-61
2021/08/14 00:57:15;;;;;;;;;5.67;4.33;;;;;24.81;44.01;101711.66;5058326;27;45432;-61
2021/08/14 00:59:41;;;;;;;;;4.33;4.00;;;;;24.80;43.63;101712.63;5059164;27;45688;-61
2021/08/14 01:02:07;;;;;;;;;5.00;4.00;;;;;24.78;43.90;101704.59;5049985;28;45451;-61
2021/08/14 01:04:32;;;;;;;;;5.67;5.00;;;;;24.75;43.66;101706.63;5057944;28;47146;-61
2021/08/14 01:06:59;;;;;;;;;4.67;4.33;;;;;24.71;43.81;101700.53;5059633;28;45240;-62
2021/08/14 01:09:29;;;;;;;;;4.00;4.00;;;;;24.66;43.71;101699.97;5072813;28;45415;-61
2021/08/14 01:11:57;;;;;;;;;5.67;5.67;;;;;24.64;43.98;101707.31;5059879;28;45741;-63
2021/08/14 01:14:22;;;;;;;;;5.00;5.00;;;;;24.61;43.96;101710.22;5059360;28;47445;-62
2021/08/14 01:16:48;;;;;;;;;5.33;4.33;;;;;24.58;43.94;101703.16;5053159;28;45306;-61
2021/08/14 01:19:14;;;;;;;;;5.00;5.00;;;;;24.56;44.24;101705.13;5049697;28;45306;-61
2021/08/14 01:21:48;;;;;;;;;4.67;4.67;;;;;24.54;44.11;101696.22;5058400;28;45304;-61
2021/08/14 01:24:13;;;;;;;;;3.67;3.67;;;;;24.51;44.28;101696.38;5059056;28;48316;-62
2021/08/14 01:26:41;;;;;;;;;5.67;4.00;;;;;24.48;44.24;101699.31;5059053;28;45377;-62
2021/08/14 01:29:08;;;;;;;;;6.00;5.33;;;;;24.45;44.15;101695.91;5059326;28;45488;-61
2021/08/14 01:31:33;;;;;;;;;4.00;3.00;;;;;24.41;44.41;101694.38;5061916;28;45862;-61
2021/08/14 01:33:59;;;;;;;;;5.67;4.33;;;;;24.40;44.13;101696.22;5071430;28;48203;-62
2021/08/14 01:36:24;;;;;;;;;6.00;5.00;;;;;24.38;44.13;101698.13;5060717;27;45845;-62
2021/08/14 01:38:55;;;;;;;;;3.33;3.33;;;;;24.35;44.56;101692.91;5053190;28;45652;-61
2021/08/14 01:41:22;;;;;;;;;5.00;5.00;;;;;24.32;43.89;101688.56;5061245;27;45653;-62
2021/08/14 01:43:58;;;;;;;;;8.00;4.67;;;;;24.28;44.25;101694.25;5066616;28;46898;-61
2021/08/14 01:46:25;;;;;;;;;6.50;6.50;;;;;24.27;44.50;101692.53;5064432;28;45607;-61
2021/08/14 01:48:51;;;;;;;;;3.67;3.67;;;;;24.26;44.37;101690.75;5089209;27;45702;-62
2021/08/14 01:51:17;;;;;;;;;2.33;2.33;;;;;24.21;44.51;101693.75;5071008;28;45466;-62
2021/08/14 01:53:50;;;;;;;;;5.00;2.00;;;;;24.19;44.26;101686.69;5080868;27;47049;-61
2021/08/14 01:56:16;;;;;;;;;7.00;4.00;;;;;24.15;44.12;101691.44;5071607;28;45758;-61
2021/08/14 01:58:42;;;;;;;;;4.00;4.00;;;;;24.14;44.16;101683.38;5068102;28;45403;-61
2021/08/14 02:01:08;;;;;;;;;4.33;4.33;;;;;24.11;44.51;101692.59;5071709;28;45427;-61
2021/08/14 02:03:34;;;;;;;;;3.00;3.00;;;;;24.10;44.68;101684.56;5083947;27;48464;-61
2021/08/14 02:06:02;;;;;;;;;4.00;4.00;;;;;24.06;44.53;101684.75;5087673;27;45412;-61
2021/08/14 02:08:27;;;;;;;;;4.00;4.00;;;;;24.02;44.91;101679.63;5071632;27;45760;-61
2021/08/14 02:10:53;;;;;;;;;4.33;3.67;;;;;23.97;44.90;101677.19;5069940;27;45451;-61
2021/08/14 02:13:18;;;;;;;;;3.25;3.25;;;;;23.97;44.72;101671.78;5063988;27;47699;-61
2021/08/14 02:15:44;;;;;;;;;5.00;3.67;;;;;23.95;45.04;101662.00;5072946;27;45424;-61
2021/08/14 02:18:09;;;;;;;;;4.00;4.00;;;;;23.92;44.80;101665.78;5070962;27;45618;-61
2021/08/14 02:20:35;;;;;;;;;6.00;6.00;;;;;23.92;45.18;101670.31;5072273;28;45463;-62
2021/08/14 02:23:00;;;;;;;;;5.25;5.00;;;;;23.92;44.89;101664.91;5090134;27;48031;-63
2021/08/14 02:25:26;;;;;;;;;4.25;3.50;;;;;23.90;44.95;101659.59;5067953;27;45518;-62
2021/08/14 02:27:51;;;;;;;;;3.00;3.00;;;;;23.89;45.08;101665.97;5057750;28;45637;-61
2021/08/14 02:30:16;;;;;;;;;4.00;3.00;;;;;23.89;44.44;101665.09;5064245;28;45622;-61
2021/08/14 02:32:42;;;;;;;;;3.00;3.00;;;;;23.88;44.81;101668.75;5060081;28;48127;-61
2021/08/14 02:35:08;;;;;;;;;4.00;4.00;;;;;23.85;44.81;101667.13;5059802;28;45420;-60
2021/08/14 02:37:33;;;;;;;;;4.67;2.00;;;;;23.83;44.75;101658.22;5060583;28;45400;-61
2021/08/14 02:39:59;;;;;;;;;6.00;4.00;;;;;23.82;44.79;101661.03;5062534;28;45405;-61
2021/08/14 02:42:24;;;;;;;;;4.00;4.00;;;;;23.80;44.99;101661.13;5059145;28;45615;-61
2021/08/14 02:44:50;;;;;;;;;3.00;3.00;;;;;23.75;44.85;101655.97;5058263;28;45401;-61
2021/08/14 02:47:15;;;;;;;;;4.00;4.00;;;;;23.72;44.91;101653.44;5060290;28;45595;-61
2021/08/14 02:49:41;;;;;;;;;9.25;5.25;;;;;23.72;44.60;101653.44;5061746;28;45361;-61
2021/08/14 02:52:06;;;;;;;;;4.00;4.00;;;;;23.72;44.82;101652.56;5059434;28;45353;-61
2021/08/14 02:54:32;;;;;;;;;2.67;2.67;;;;;23.72;45.13;101644.44;5060463;28;45292;-61
2021/08/14 02:56:57;;;;;;;;;3.67;3.00;;;;;23.70;44.91;101644.53;5058795;28;45731;-60
2021/08/14 02:59:23;;;;;;;;;8.00;6.00;;;;;23.69;45.14;101650.94;5059870;28;45588;-61
2021/08/14 03:01:48;;;;;;;;;5.00;4.00;;;;;23.69;45.21;101640.09;5053609;27;47053;-61
2021/08/14 03:04:14;;;;;;;;;5.00;5.00;;;;;23.69;45.21;101641.94;5086012;27;45431;-61
2021/08/14 03:06:39;;;;;;;;;4.33;3.67;;;;;23.67;45.18;101642.03;5059843;28;45480;-61
2021/08/14 03:09:08;;;;;;;;;4.00;4.00;;;;;23.68;44.82;101637.47;5062355;28;45291;-61
2021/08/14 03:11:33;;;;;;;;;5.00;3.00;;;;;23.66;45.01;101637.59;5058665;28;47684;-61
2021/08/14 03:13:59;;;;;;;;;4.00;4.00;;;;;23.64;45.36;101635.94;5043910;28;45365;-61
2021/08/14 03:16:24;;;;;;;;;5.00;3.00;;;;;23.64;45.22;101633.22;5050354;28;45691;-61
2021/08/14 03:18:50;;;;;;;;;4.00;4.00;;;;;23.62;45.73;101632.44;5062220;28;45299;-61
2021/08/14 03:21:15;;;;;;;;;4.33;4.33;;;;;23.61;45.29;101623.44;5060274;28;46986;-61
2021/08/14 03:23:41;;;;;;;;;6.67;5.00;;;;;23.59;45.56;101617.22;5054853;28;45414;-61
2021/08/14 03:26:06;;;;;;;;;6.67;5.00;;;;;23.59;45.52;101630.78;5070113;28;45245;-61
2021/08/14 03:28:32;;;;;;;;;6.67;5.00;;;;;23.58;45.34;101620.91;5074502;27;45643;-61
2021/08/14 03:30:58;;;;;;;;;5.25;5.25;;;;;23.58;45.53;101626.34;5063967;28;48081;-61
2021/08/14 03:33:23;;;;;;;;;4.67;4.67;;;;;23.56;45.50;101625.53;5074265;27;46141;-61
2021/08/14 03:35:49;;;;;;;;;5.00;5.00;;;;;23.55;45.54;101621.06;5063163;28;45386;-61
2021/08/14 03:38:14;;;;;;;;;6.00;5.67;;;;;23.55;45.45;101622.91;5067324;27;45420;-61
2021/08/14 03:40:40;;;;;;;;;6.50;5.25;;;;;23.56;45.32;101621.94;5068794;28;47306;-61
2021/08/14 03:43:05;;;;;;;;;5.00;4.00;;;;;23.54;45.54;101624.75;5074774;27;45428;-61
2021/08/14 03:45:31;;;;;;;;;7.00;6.00;;;;;23.53;45.62;101623.00;5067992;28;45492;-61
2021/08/14 03:47:56;;;;;;;;;5.00;5.00;;;;;23.52;45.41;101613.16;5069713;27;45386;-61
2021/08/14 03:50:22;;;;;;;;;7.00;4.33;;;;;23.51;45.64;101622.25;5070575;27;47287;-61
2021/08/14 03:52:47;;;;;;;;;5.33;4.33;;;;;23.49;45.80;101614.19;5067418;27;45345;-60
2021/08/14 03:55:13;;;;;;;;;3.67;3.67;;;;;23.48;45.80;101617.00;5062068;28;45624;-61
2021/08/14 03:57:38;;;;;;;;;7.00;6.00;;;;;23.47;45.60;101623.38;5066590;28;45628;-61
2021/08/14 04:00:05;;;;;;;;;4.67;4.33;;;;;23.45;45.86;101612.63;5070558;28;47141;-60
2021/08/14 04:02:30;;;;;;;;;6.33;5.33;;;;;23.45;45.53;101614.47;5072291;27;45614;-62
2021/08/14 04:04:56;;;;;;;;;5.33;5.00;;;;;23.43;45.78;101613.69;5064671;27;45324;-61
2021/08/14 04:07:21;;;;;;;;;7.00;5.33;;;;;23.42;45.94;101606.53;5078907;28;45288;-62
2021/08/14 04:09:46;;;;;;;;;5.00;5.00;;;;;23.40;45.80;101603.06;5074630;27;47223;-60
2021/08/14 04:12:12;;;;;;;;;5.00;4.00;;;;;23.38;45.96;101602.28;5071613;27;45432;-60
2021/08/14 04:14:37;;;;;;;;;4.00;4.00;;;;;23.36;45.92;101599.66;5064918;28;45567;-60
2021/08/14 04:17:04;;;;;;;;;5.67;5.67;;;;;23.37;46.05;101603.22;5072173;27;45397;-61
2021/08/14 04:19:29;;;;;;;;;7.25;4.25;;;;;23.36;45.96;101596.94;5076156;27;47589;-61
2021/08/14 04:21:54;;;;;;;;;5.33;5.33;;;;;23.34;45.86;101604.28;5067842;27;46036;-62
2021/08/14 04:24:20;;;;;;;;;8.00;7.00;;;;;23.32;46.27;101598.09;5065523;28;45360;-61
2021/08/14 04:26:45;;;;;;;;;5.67;5.33;;;;;23.32;46.21;101598.09;5059558;27;45443;-61
2021/08/14 04:29:11;;;;;;;;;6.67;5.67;;;;;23.33;46.41;101604.38;5067706;28;45394;-61
2021/08/14 04:31:36;;;;;;;;;8.00;7.00;;;;;23.32;46.38;101599.94;5057485;28;45944;-61
2021/08/14 04:34:02;;;;;;;;;6.00;4.67;;;;;23.31;46.40;101599.06;5069146;28;45356;-60
2021/08/14 04:36:27;;;;;;;;;6.00;6.00;;;;;23.31;46.23;101593.66;5065482;27;45348;-61
2021/08/14 04:38:53;;;;;;;;;5.33;5.33;;;;;23.31;46.51;101592.78;5069157;28;46232;-61
2021/08/14 04:41:18;;;;;;;;;7.00;5.00;;;;;23.30;46.79;101589.19;5064075;28;45400;-60
2021/08/14 04:43:44;;;;;;;;;9.00;7.67;;;;;23.29;46.67;101592.88;5068799;28;45800;-61
2021/08/14 04:46:09;;;;;;;;;4.33;4.33;;;;;23.28;46.46;101585.72;5064843;27;45582;-61
2021/08/14 04:48:35;;;;;;;;;5.00;5.00;;;;;23.29;46.59;101583.88;5069061;28;46100;-60
2021/08/14 04:51:01;;;;;;;;;6.67;6.33;;;;;23.27;46.57;101580.41;5064395;28;45706;-61
2021/08/14 04:53:26;;;;;;;;;4.00;4.00;;;;;23.25;46.42;101583.22;5067780;28;45484;-61
2021/08/14 04:55:52;;;;;;;;;6.33;5.00;;;;;23.22;46.70;101580.66;5066938;28;45255;-61
2021/08/14 04:58:17;;;;;;;;;8.33;6.67;;;;;23.22;46.88;101580.66;5070737;27;47051;-62
2021/08/14 05:00:43;;;;;;;;;7.00;6.67;;;;;23.22;46.92;101582.50;5088181;27;45396;-63
2021/08/14 05:03:08;;;;;;;;;5.67;5.00;;;;;23.22;46.89;101577.94;5061259;28;45420;-61
2021/08/14 05:05:34;;;;;;;;;7.00;5.00;;;;;23.22;46.76;101580.66;5061810;27;45681;-63
2021/08/14 05:07:59;;;;;;;;;5.67;4.00;;;;;23.19;46.70;101576.31;5059065;28;46412;-61
2021/08/14 05:10:25;;;;;;;;;7.33;5.33;;;;;23.22;46.82;101577.09;5060468;27;45453;-63
2021/08/14 05:12:50;;;;;;;;;7.33;4.67;;;;;23.20;46.66;101580.75;5059859;28;45483;-60
2021/08/14 05:15:15;;;;;;;;;5.00;5.00;;;;;23.22;46.90;101582.50;5065913;28;45929;-60
2021/08/14 05:17:41;;;;;;;;;5.67;5.67;;;;;23.23;46.95;101587.81;5055368;28;47445;-60
2021/08/14 05:20:07;;;;;;;;;6.00;6.00;;;;;23.25;46.91;101590.44;5066003;27;45901;-60
2021/08/14 05:22:32;;;;;;;;;6.00;5.67;;;;;23.25;46.74;101585.91;5063186;28;45385;-61
2021/08/14 05:24:58;;;;;;;;;6.00;6.00;;;;;23.25;46.60;101582.31;5060924;27;45488;-59
2021/08/14 05:27:24;;;;;;;;;5.33;5.33;;;;;23.24;46.78;101592.25;5059236;28;47845;-60
2021/08/14 05:29:49;;;;;;;;;7.00;6.00;;;;;23.24;46.75;101588.69;5061580;28;45582;-60
2021/08/14 05:32:15;;;;;;;;;6.00;6.00;;;;;23.21;47.19;101587.03;5060656;28;45604;-61
2021/08/14 05:34:40;;;;;;;;;7.67;6.33;;;;;23.23;46.92;101592.38;5061173;28;45428;-61
2021/08/14 05:37:06;;;;;;;;;6.00;5.67;;;;;23.24;46.99;101591.41;5059262;28;48155;-61
2021/08/14 05:39:31;;;;;;;;;3.67;3.67;;;;;23.25;46.92;101598.56;5060063;28;45838;-60
2021/08/14 05:41:57;;;;;;;;;7.00;6.00;;;;;23.26;46.59;101593.06;5060275;28;45822;-60
2021/08/14 05:44:22;;;;;;;;;5.00;5.00;;;;;23.27;46.82;101591.22;5061215;28;45756;-60
2021/08/14 05:46:48;;;;;;;;;6.33;6.00;;;;;23.29;46.65;101598.28;5057436;28;46037;-61
2021/08/14 05:49:14;;;;;;;;;9.33;7.33;;;;;23.29;46.63;101600.13;5091090;27;45863;-60
2021/08/14 05:51:39;;;;;;;;;5.33;5.33;;;;;23.30;46.67;101610.00;5072984;27;45521;-60
2021/08/14 05:54:05;;;;;;;;;6.33;6.33;;;;;23.28;46.53;101604.69;5065683;28;45479;-60
2021/08/14 05:56:30;;;;;;;;;6.00;6.00;;;;;23.27;46.61;101607.50;5066495;28;47680;-60
2021/08/14 05:58:56;;;;;;;;;6.00;6.00;;;;;23.26;46.96;101608.44;5072204;28;45841;-60
2021/08/14 06:01:21;;;;;;;;;5.33;5.00;;;;;23.27;46.55;101619.19;5068824;27;45425;-60
2021/08/14 06:03:47;;;;;;;;;6.00;5.67;;;;;23.28;46.93;101610.09;5067908;28;45427;-61
2021/08/14 06:06:12;;;;;;;;;7.33;7.33;;;;;23.30;47.08;101608.16;5072496;28;47336;-60
2021/08/14 06:08:38;;;;;;;;;6.67;5.33;;;;;23.32;46.84;101616.19;5060698;27;45607;-60
2021/08/14 06:11:03;;;;;;;;;8.67;8.67;;;;;23.32;47.13;101617.06;5067893;28;45445;-61
2021/08/14 06:13:29;;;;;;;;;5.00;5.00;;;;;23.32;46.82;101617.06;5069642;28;45698;-61
2021/08/14 06:15:54;;;;;;;;;6.00;6.00;;;;;23.34;46.93;101617.84;5072354;28;48219;-60
2021/08/14 06:18:20;;;;;;;;;6.33;6.33;;;;;23.35;46.67;101616.00;5066723;27;45388;-60
2021/08/14 06:20:46;;;;;;;;;6.67;5.67;;;;;23.36;46.75;101623.16;5068019;28;45604;-61
2021/08/14 06:23:11;;;;;;;;;7.33;6.00;;;;;23.37;46.55;101627.59;5071524;27;45499;-60
2021/08/14 06:25:37;;;;;;;;;6.67;6.33;;;;;23.39;46.72;101628.41;5062112;28;48245;-61
2021/08/14 06:28:03;;;;;;;;;5.00;5.00;;;;;23.41;46.75;101618.34;5082699;27;45558;-61
2021/08/14 06:30:28;;;;;;;;;7.67;6.33;;;;;23.40;46.64;101622.03;5064073;28;45404;-61
2021/08/14 06:32:54;;;;;;;;;6.00;6.00;;;;;23.42;46.67;101626.38;5062805;28;45710;-61
2021/08/14 06:35:19;;;;;;;;;6.67;6.67;;;;;23.44;46.65;101621.72;5065565;28;47206;-61
2021/08/14 06:37:45;;;;;;;;;10.00;7.00;;;;;23.45;46.71;101622.59;5064809;28;45968;-61
2021/08/14 06:40:13;;;;;;;;;10.00;8.33;;;;;23.45;46.56;101628.88;5065279;28;45384;-60
2021/08/14 06:42:39;;;;;;;;;6.00;5.00;;;;;23.48;46.24;101627.81;5063524;27;45555;-60
2021/08/14 06:45:06;;;;;;;;;7.00;6.00;;;;;23.46;46.14;101622.50;5065447;27;48718;-60
2021/08/14 06:47:31;;;;;;;;;6.00;6.00;;;;;23.45;46.60;101615.34;5062052;27;45713;-60
2021/08/14 06:49:57;;;;;;;;;8.33;7.00;;;;;23.45;46.48;101622.59;5065312;28;45295;-61
2021/08/14 06:52:22;;;;;;;;;6.67;6.00;;;;;23.43;46.64;101617.28;5060917;27;45372;-61
2021/08/14 06:54:48;;;;;;;;;6.00;6.00;;;;;23.43;47.01;101621.84;5057571;28;46948;-60
2021/08/14 06:57:14;;;;;;;;;7.00;7.00;;;;;23.44;46.42;101619.03;5053434;28;45468;-61
2021/08/14 06:59:39;;;;;;;;;8.33;6.67;;;;;23.45;46.53;101614.47;5059937;28;45506;-61
2021/08/14 07:02:05;;;;;;;;;5.00;5.00;;;;;23.47;46.49;101623.38;5058884;28;45403;-61
2021/08/14 07:04:30;;;;;;;;;6.33;6.00;;;;;23.49;46.25;101626.84;5061087;28;48111;-61
2021/08/14 07:06:56;;;;;;;;;7.00;7.00;;;;;23.51;46.39;101626.78;5061268;28;45648;-60
2021/08/14 07:09:21;;;;;;;;;6.00;5.00;;;;;23.52;46.24;101623.13;5057037;28;45701;-60
2021/08/14 07:11:47;;;;;;;;;6.00;6.00;;;;;23.54;46.23;101621.19;5061671;28;45403;-60
2021/08/14 07:14:13;;;;;;;;;5.00;5.00;;;;;23.56;46.01;101621.94;5061381;28;45721;-62
2021/08/14 07:16:39;;;;;;;;;4.67;4.67;;;;;23.56;45.79;101619.25;5056652;28;45426;-61
2021/08/14 07:19:04;;;;;;;;;8.67;7.00;;;;;23.56;45.94;101617.41;5057876;28;45500;-61
2021/08/14 07:21:30;;;;;;;;;5.00;4.00;;;;;23.57;45.90;101621.84;5061591;28;45397;-61
2021/08/14 07:23:55;;;;;;;;;5.25;5.25;;;;;23.60;45.45;101626.25;5060296;28;47298;-61
2021/08/14 07:26:22;;;;;;;;;8.25;8.00;;;;;23.62;45.40;101618.88;5055690;28;45323;-61
2021/08/14 07:28:49;;;;;;;;;7.33;5.67;;;;;23.64;45.72;101615.13;5059093;28;45396;-61
2021/08/14 07:31:15;;;;;;;;;6.33;6.33;;;;;23.67;45.62;101622.19;5059045;28;45602;-61
2021/08/14 07:33:40;;;;;;;;;6.00;6.00;;;;;23.69;45.56;101617.53;5055461;27;47216;-61
2021/08/14 07:36:07;;;;;;;;;6.00;6.00;;;;;23.71;45.47;101618.31;5057035;28;45299;-61
2021/08/14 07:38:33;;;;;;;;;7.00;5.75;;;;;23.74;45.36;101618.97;5060826;28;45295;-61
2021/08/14 07:40:58;;;;;;;;;5.50;4.00;;;;;23.77;45.16;101617.94;5059281;28;45317;-61
2021/08/14 07:43:24;;;;;;;;;6.00;4.67;;;;;23.77;44.90;101618.81;5055366;28;47099;-61
2021/08/14 07:45:49;;;;;;;;;5.33;5.33;;;;;23.76;45.08;101617.06;5061022;28;45679;-61
2021/08/14 07:48:15;;;;;;;;;5.00;4.33;;;;;23.75;44.87;101619.84;5058571;28;45610;-61
2021/08/14 07:50:40;;;;;;;;;5.67;5.00;;;;;23.74;45.04;101618.97;5045185;28;45524;-62
2021/08/14 07:53:06;;;;;;;;;7.67;7.67;;;;;23.75;44.81;101609.88;5058423;28;46325;-62
2021/08/14 07:55:33;;;;;;;;;5.33;5.33;;;;;23.77;44.85;101610.69;5057912;28;45343;-60
2021/08/14 07:57:59;;;;;;;;;5.00;5.00;;;;;23.80;44.49;101615.03;5057399;28;45815;-62
2021/08/14 08:00:26;;;;;;;;;7.67;6.00;;;;;23.81;44.84;101608.66;5070457;28;45475;-60
2021/08/14 08:02:52;;;;;;;;;5.00;5.00;;;;;23.82;44.99;101604.09;5057196;28;48374;-60
2021/08/14 08:05:18;;;;;;;;;4.67;3.33;;;;;23.82;45.11;101607.69;5058324;28;45341;-61
2021/08/14 08:07:45;;;;;;;;;6.00;6.00;;;;;23.83;45.38;101595.00;5055767;28;45386;-61
2021/08/14 08:10:18;;;;;;;;;4.00;4.00;;;;;23.85;45.14;101593.91;5074137;28;45730;-61
2021/08/14 08:12:44;;;;;;;;;7.00;6.67;;;;;23.86;45.00;101592.94;5055632;28;47738;-61
2021/08/14 08:15:12;;;;;;;;;6.25;6.25;;;;;23.90;45.33;101593.66;5058582;28;45430;-61
2021/08/14 08:17:37;;;;;;;;;5.67;5.67;;;;;23.93;44.98;101590.72;5056903;28;45814;-61
2021/08/14 08:20:05;;;;;;;;;7.00;6.00;;;;;23.92;44.98;101598.00;5058964;28;45524;-61
2021/08/14 08:22:31;;;;;;;;;3.33;3.00;;;;;23.94;44.63;101590.63;5057422;28;47425;-61
2021/08/14 08:24:56;;;;;;;;;4.33;4.33;;;;;23.96;44.46;101588.69;5059747;28;46432;-60
2021/08/14 08:27:22;;;;;;;;;4.00;4.00;;;;;24.00;43.99;101584.81;5060320;28;45358;-60
2021/08/14 08:29:49;;;;;;;;;4.50;3.25;;;;;24.02;43.66;101592.88;5058723;28;45265;-62
2021/08/14 08:32:14;;;;;;;;;3.67;3.67;;;;;24.02;43.53;101590.16;5044144;28;47481;-61
2021/08/14 08:34:40;;;;;;;;;3.00;3.00;;;;;23.99;43.32;101590.31;5059644;28;45545;-62
2021/08/14 08:37:06;;;;;;;;;7.50;6.75;;;;;23.97;43.59;101590.44;5058679;28;45358;-62
2021/08/14 08:39:32;;;;;;;;;3.00;3.00;;;;;23.98;43.32;101580.47;5054940;28;45743;-62
2021/08/14 08:41:58;;;;;;;;;5.67;5.67;;;;;24.02;43.40;101590.16;5053773;28;47822;-61
2021/08/14 08:44:25;;;;;;;;;5.00;4.67;;;;;24.04;43.06;101589.09;5059692;28;44941;-61
2021/08/14 08:46:51;;;;;;;;;6.00;6.00;;;;;24.07;42.78;101588.88;5059882;28;45518;-61
2021/08/14 08:49:20;;;;;;;;;4.00;4.00;;;;;24.11;42.62;101588.66;5059996;27;45531;-61
2021/08/14 08:51:47;;;;;;;;;6.33;6.33;;;;;24.15;42.65;101582.97;5059349;28;47070;-61
2021/08/14 08:54:14;;;;;;;;;7.67;7.67;;;;;24.18;42.15;101579.19;5058465;28;45311;-62
2021/08/14 08:56:39;;;;;;;;;5.00;4.00;;;;;24.21;42.12;101579.84;5062422;28;45470;-61
2021/08/14 08:59:05;;;;;;;;;6.67;4.67;;;;;24.24;41.96;101582.34;5065018;27;45669;-61
2021/08/14 09:01:31;;;;;;;;;7.00;5.00;;;;;24.26;41.68;101571.41;5071577;28;47190;-61
2021/08/14 09:04:19;;;;;;;;;5.00;4.33;;;;;24.30;41.73;101575.72;5081919;27;45470;-61
2021/08/14 09:06:45;;;;;;;;;6.00;4.67;;;;;24.34;41.57;101569.97;5056665;28;45496;-61
2021/08/14 09:09:13;;;;;;;;;4.67;4.67;;;;;24.38;41.28;101564.31;5075688;27;45496;-61
2021/08/14 09:12:00;;;;;;;;;8.00;6.00;;;;;24.42;41.08;101565.88;5078467;27;47354;-61
2021/08/14 09:14:29;;;;;;;;;3.00;3.00;;;;;24.44;41.02;101553.97;5077226;27;45676;-62
2021/08/14 09:17:08;;;;;;;;;5.33;5.33;;;;;24.46;40.70;101557.44;5067923;27;45512;-61
2021/08/14 09:19:35;;;;;;;;;6.00;6.00;;;;;24.49;40.57;101559.94;5075984;28;45486;-62
2021/08/14 09:22:18;;;;;;;;;5.67;5.00;;;;;24.55;40.88;101572.25;5078211;27;48739;-61
2021/08/14 09:24:44;;;;;;;;;5.00;5.00;;;;;24.58;40.88;101566.59;5068680;27;45345;-61
2021/08/14 09:27:12;;;;;;;;;5.00;2.67;;;;;24.63;40.95;101564.44;5066485;27;45324;-61
2021/08/14 09:29:39;;;;;;;;;8.00;6.00;;;;;24.67;40.89;101562.41;5068894;27;45323;-61
2021/08/14 09:32:12;;;;;;;;;4.00;4.00;;;;;24.72;40.72;101563.81;5056263;28;47320;-61
2021/08/14 09:34:43;;;;;;;;;4.00;4.00;;;;;24.75;40.43;101563.59;5088500;27;46298;-61
2021/08/14 09:37:14;;;;;;;;;2.67;2.67;;;;;24.79;40.50;101559.75;5066808;28;45690;-62
2021/08/14 09:39:57;;;;;;;;;5.00;4.67;;;;;24.85;40.75;101561.16;5064450;27;45305;-62
2021/08/14 09:42:23;;;;;;;;;3.67;3.67;;;;;24.88;40.38;101550.94;5068475;27;45836;-61
2021/08/14 09:45:15;;;;;;;;;5.33;5.33;;;;;24.92;40.70;101549.78;5063785;28;45360;-62
2021/08/14 09:47:46;;;;;;;;;5.00;4.67;;;;;24.97;40.29;101546.72;5063729;28;45724;-62
2021/08/14 09:50:12;;;;;;;;;3.67;2.67;;;;;25.00;40.03;101551.06;5063160;28;45273;-62
2021/08/14 09:52:40;;;;;;;;;4.00;2.00;;;;;25.03;40.10;101551.78;5061955;27;47384;-62
2021/08/14 09:55:06;;;;;;;;;5.00;5.00;;;;;25.06;40.03;101548.00;5061118;28;45914;-62
2021/08/14 09:57:31;;;;;;;;;5.00;5.00;;;;;25.09;40.36;101550.47;5058263;27;45807;-62
2021/08/14 09:59:59;;;;;;;;;5.00;4.00;;;;;25.11;40.05;101552.09;5062100;27;45374;-62
2021/08/14 10:02:27;;;;;;;;;5.00;4.00;;;;;25.14;39.81;101548.31;5056424;28;47187;-61
2021/08/14 10:04:55;;;;;;;;;7.00;6.00;;;;;25.18;39.87;101547.13;5058465;28;45600;-62
2021/08/14 10:07:21;;;;;;;;;5.67;5.33;;;;;25.20;39.73;101546.03;5059582;28;45907;-62
2021/08/14 10:09:47;;;;;;;;;5.33;5.33;;;;;25.24;39.80;101539.41;5061293;28;45373;-62
2021/08/14 10:12:16;;;;;;;;;4.00;4.00;;;;;25.27;39.57;101537.44;5059714;28;48172;-62
2021/08/14 10:14:45;;;;;;;;;5.33;5.33;;;;;25.30;39.11;101535.41;5061480;28;45986;-62
2021/08/14 10:17:11;;;;;;;;;4.67;3.67;;;;;25.34;38.75;101534.22;5053014;28;45363;-62
2021/08/14 10:19:38;;;;;;;;;4.67;4.67;;;;;25.36;39.22;101532.25;5066371;28;45549;-62
2021/08/14 10:22:06;;;;;;;;;4.67;4.67;;;;;25.40;39.02;101535.59;5062253;28;47259;-62
2021/08/14 10:24:41;;;;;;;;;4.00;3.67;;;;;25.45;39.53;101528.00;5054779;28;47590;-62
2021/08/14 10:27:12;;;;;;;;;6.67;6.67;;;;;25.48;38.70;101517.78;5088637;27;45313;-62
2021/08/14 10:29:59;;;;;;;;;7.00;7.00;;;;;25.51;38.74;101524.84;5058296;28;45488;-61
2021/08/14 10:32:31;;;;;;;;;8.00;6.00;;;;;25.53;38.94;101520.16;5052361;28;46467;-61
2021/08/14 10:35:12;;;;;;;;;5.33;4.67;;;;;25.56;38.66;101508.22;5070303;28;46159;-62
2021/08/14 10:37:39;;;;;;;;;8.00;6.67;;;;;25.58;38.64;101515.28;5059861;28;45460;-61
2021/08/14 10:40:06;;;;;;;;;7.67;7.00;;;;;25.61;38.79;101501.47;5059379;27;45368;-62
2021/08/14 10:42:50;;;;;;;;;7.00;7.00;;;;;25.66;38.68;101495.69;5045771;28;46010;-62
2021/08/14 10:45:16;;;;;;;;;6.67;6.67;;;;;25.68;38.55;101493.75;5051501;28;45415;-59
2021/08/14 10:47:45;;;;;;;;;4.67;4.67;;;;;25.73;38.45;101492.44;5061578;28;45435;-60
2021/08/14 10:50:30;;;;;;;;;7.00;5.67;;;;;25.79;38.58;101493.84;5058583;28;45344;-60
2021/08/14 10:53:11;;;;;;;;;8.00;8.00;;;;;25.85;38.79;101495.25;5057099;28;46421;-61
2021/08/14 10:55:42;;;;;;;;;6.33;6.00;;;;;25.88;37.97;101495.88;5082983;27;45435;-61
2021/08/14 10:58:38;;;;;;;;;6.67;4.00;;;;;25.92;38.56;101488.38;5084021;27;45492;-61
2021/08/14 11:01:03;;;;;;;;;6.67;6.67;;;;;25.95;37.81;101488.16;5065962;27;45576;-61
2021/08/14 11:03:38;;;;;;;;;4.67;4.67;;;;;25.98;37.88;101490.66;5055830;28;48445;-61
2021/08/14 11:06:23;;;;;;;;;8.00;8.00;;;;;26.03;38.30;101483.00;5061203;28;45894;-62
2021/08/14 11:08:49;;;;;;;;;6.67;6.33;;;;;26.07;38.65;101484.53;5070840;28;45528;-60
2021/08/14 11:11:34;;;;;;;;;7.00;7.00;;;;;26.11;38.63;101480.59;5056780;28;45444;-61
2021/08/14 11:14:08;;;;;;;;;5.33;5.00;;;;;26.15;38.89;101473.06;5049385;28;47338;-61
2021/08/14 11:16:59;;;;;;;;;8.00;8.00;;;;;26.18;38.33;101478.28;5047006;28;46245;-61
2021/08/14 11:19:53;;;;;;;;;6.67;5.67;;;;;26.23;38.65;101474.22;5053776;28;45274;-60
2021/08/14 11:22:20;;;;;;;;;4.67;4.67;;;;;26.27;38.24;101480.31;5060675;28;45604;-61
2021/08/14 11:24:46;;;;;;;;;6.33;6.33;;;;;26.30;38.15;101471.94;5060093;28;45773;-61